sensor_id;sensor_type;location;lat;lon;timestamp;temperature;humidity
72952;HTU21D;61102;51.956;5.878;2022-12-15T00:01:09;-0.87;55.25
72952;HTU21D;61102;51.956;5.878;2022-12-15T00:03:53;-0.89;55.25
72952;HTU21D;61102;51.956;5.878;2022-12-15T00:06:38;-0.90;55.24
72952;HTU21D;61102;51.956;5.878;2022-12-15T00:09:23;-0.93;55.23
72952;HTU21D;61102;51.956;5.878;2022-12-15T00:12:07;-0.95;55.16
72952;HTU21D;61102;51.956;5.878;2022-12-15T00:14:52;-0.99;55.19
72952;HTU21D;61102;51.956;5.878;2022-12-15T00:17:37;-1.01;55.19
72952;HTU21D;61102;51.956;5.878;2022-12-15T00:20:21;-1.04;55.19
72952;HTU21D;61102;51.956;5.878;2022-12-15T00:23:12;-1.04;55.40
72952;HTU21D;61102;51.956;5.878;2022-12-15T00:25:57;-1.05;55.40
72952;HTU21D;61102;51.956;5.878;2022-12-15T00:28:42;-1.04;55.43
72952;HTU21D;61102;51.956;5.878;2022-12-15T00:31:27;-1.02;55.36
72952;HTU21D;61102;51.956;5.878;2022-12-15T00:34:12;-1.04;55.41
72952;HTU21D;61102;51.956;5.878;2022-12-15T00:36:57;-1.04;55.41
72952;HTU21D;61102;51.956;5.878;2022-12-15T00:39:41;-1.08;55.47
72952;HTU21D;61102;51.956;5.878;2022-12-15T00:42:08;-1.08;55.55
72952;HTU21D;61102;51.956;5.878;2022-12-15T00:44:34;-1.05;55.46
72952;HTU21D;61102;51.956;5.878;2022-12-15T00:47:03;-1.04;55.39
72952;HTU21D;61102;51.956;5.878;2022-12-15T00:49:30;-1.01;55.21
72952;HTU21D;61102;51.956;5.878;2022-12-15T00:52:16;-1.03;55.23
72952;HTU21D;61102;51.956;5.878;2022-12-15T00:55:03;-1.06;55.24
72952;HTU21D;61102;51.956;5.878;2022-12-15T00:57:48;-1.10;55.26
72952;HTU21D;61102;51.956;5.878;2022-12-15T01:00:33;-1.15;55.34
72952;HTU21D;61102;51.956;5.878;2022-12-15T01:03:20;-1.17;55.37
72952;HTU21D;61102;51.956;5.878;2022-12-15T01:06:06;-1.19;55.34
72952;HTU21D;61102;51.956;5.878;2022-12-15T01:08:51;-1.19;55.30
72952;HTU21D;61102;51.956;5.878;2022-12-15T01:11:36;-1.19;55.42
72952;HTU21D;61102;51.956;5.878;2022-12-15T01:14:21;-1.17;55.36
72952;HTU21D;61102;51.956;5.878;2022-12-15T01:17:06;-1.20;55.41
72952;HTU21D;61102;51.956;5.878;2022-12-15T01:19:50;-1.21;55.35
72952;HTU21D;61102;51.956;5.878;2022-12-15T01:22:36;-1.26;55.43
72952;HTU21D;61102;51.956;5.878;2022-12-15T01:25:03;-1.27;55.36
72952;HTU21D;61102;51.956;5.878;2022-12-15T01:27:29;-1.29;55.34
72952;HTU21D;61102;51.956;5.878;2022-12-15T01:29:55;-1.30;55.31
72952;HTU21D;61102;51.956;5.878;2022-12-15T01:32:21;-1.30;55.23
72952;HTU21D;61102;51.956;5.878;2022-12-15T01:34:48;-1.31;55.21
72952;HTU21D;61102;51.956;5.878;2022-12-15T01:37:14;-1.33;55.19
72952;HTU21D;61102;51.956;5.878;2022-12-15T01:39:40;-1.31;55.11
72952;HTU21D;61102;51.956;5.878;2022-12-15T01:42:25;-1.34;55.12
72952;HTU21D;61102;51.956;5.878;2022-12-15T01:44:52;-1.39;55.16
72952;HTU21D;61102;51.956;5.878;2022-12-15T01:47:22;-1.42;55.31
72952;HTU21D;61102;51.956;5.878;2022-12-15T01:49:50;-1.40;55.17
72952;HTU21D;61102;51.956;5.878;2022-12-15T01:52:18;-1.44;55.22
72952;HTU21D;61102;51.956;5.878;2022-12-15T01:55:04;-1.42;55.37
72952;HTU21D;61102;51.956;5.878;2022-12-15T01:57:31;-1.42;55.00
72952;HTU21D;61102;51.956;5.878;2022-12-15T02:00:04;-1.46;55.07
72952;HTU21D;61102;51.956;5.878;2022-12-15T02:02:32;-1.45;55.07
72952;HTU21D;61102;51.956;5.878;2022-12-15T02:05:02;-1.44;55.09
72952;HTU21D;61102;51.956;5.878;2022-12-15T02:07:28;-1.46;55.10
72952;HTU21D;61102;51.956;5.878;2022-12-15T02:09:57;-1.48;55.22
72952;HTU21D;61102;51.956;5.878;2022-12-15T02:20:34;-1.40;55.28
72952;HTU21D;61102;51.956;5.878;2022-12-15T02:23:19;-1.47;55.26
72952;HTU21D;61102;51.956;5.878;2022-12-15T02:29:07;-1.49;55.18
72952;HTU21D;61102;51.956;5.878;2022-12-15T02:31:37;-1.53;54.94
72952;HTU21D;61102;51.956;5.878;2022-12-15T02:34:33;-1.57;55.29
72952;HTU21D;61102;51.956;5.878;2022-12-15T02:37:07;-1.59;55.20
72952;HTU21D;61102;51.956;5.878;2022-12-15T02:39:35;-1.56;55.10
72952;HTU21D;61102;51.956;5.878;2022-12-15T02:42:01;-1.53;55.08
72952;HTU21D;61102;51.956;5.878;2022-12-15T02:44:35;-1.52;55.13
72952;HTU21D;61102;51.956;5.878;2022-12-15T02:52:40;-1.59;55.12
72952;HTU21D;61102;51.956;5.878;2022-12-15T03:00:17;-1.64;54.99
72952;HTU21D;61102;51.956;5.878;2022-12-15T03:02:47;-1.61;55.13
72952;HTU21D;61102;51.956;5.878;2022-12-15T03:05:15;-1.61;55.06
72952;HTU21D;61102;51.956;5.878;2022-12-15T03:07:42;-1.63;55.09
72952;HTU21D;61102;51.956;5.878;2022-12-15T03:10:12;-1.67;55.17
72952;HTU21D;61102;51.956;5.878;2022-12-15T03:12:38;-1.65;55.10
72952;HTU21D;61102;51.956;5.878;2022-12-15T03:15:05;-1.69;55.12
72952;HTU21D;61102;51.956;5.878;2022-12-15T03:17:31;-1.70;55.14
72952;HTU21D;61102;51.956;5.878;2022-12-15T03:19:59;-1.73;55.21
72952;HTU21D;61102;51.956;5.878;2022-12-15T03:22:25;-1.74;55.21
72952;HTU21D;61102;51.956;5.878;2022-12-15T03:24:51;-1.73;55.13
72952;HTU21D;61102;51.956;5.878;2022-12-15T03:27:17;-1.71;55.09
72952;HTU21D;61102;51.956;5.878;2022-12-15T03:29:43;-1.69;55.08
72952;HTU21D;61102;51.956;5.878;2022-12-15T03:32:10;-1.69;55.07
72952;HTU21D;61102;51.956;5.878;2022-12-15T03:34:36;-1.69;55.09
72952;HTU21D;61102;51.956;5.878;2022-12-15T03:37:02;-1.69;55.16
72952;HTU21D;61102;51.956;5.878;2022-12-15T03:39:28;-1.65;55.15
72952;HTU21D;61102;51.956;5.878;2022-12-15T03:41:54;-1.62;55.12
72952;HTU21D;61102;51.956;5.878;2022-12-15T03:44:20;-1.61;55.05
72952;HTU21D;61102;51.956;5.878;2022-12-15T03:46:46;-1.59;55.00
72952;HTU21D;61102;51.956;5.878;2022-12-15T03:49:12;-1.58;55.00
72952;HTU21D;61102;51.956;5.878;2022-12-15T03:51:38;-1.59;54.94
72952;HTU21D;61102;51.956;5.878;2022-12-15T03:54:06;-1.65;55.06
72952;HTU21D;61102;51.956;5.878;2022-12-15T03:56:32;-1.69;55.13
72952;HTU21D;61102;51.956;5.878;2022-12-15T03:58:58;-1.71;55.11
72952;HTU21D;61102;51.956;5.878;2022-12-15T04:01:28;-1.73;55.10
72952;HTU21D;61102;51.956;5.878;2022-12-15T04:03:55;-1.74;55.10
72952;HTU21D;61102;51.956;5.878;2022-12-15T04:06:24;-1.74;55.13
72952;HTU21D;61102;51.956;5.878;2022-12-15T04:08:50;-1.68;54.90
72952;HTU21D;61102;51.956;5.878;2022-12-15T04:11:17;-1.69;55.00
72952;HTU21D;61102;51.956;5.878;2022-12-15T04:13:43;-1.70;54.98
72952;HTU21D;61102;51.956;5.878;2022-12-15T04:16:09;-1.73;55.05
72952;HTU21D;61102;51.956;5.878;2022-12-15T04:18:36;-1.77;55.12
72952;HTU21D;61102;51.956;5.878;2022-12-15T04:21:02;-1.79;55.13
72952;HTU21D;61102;51.956;5.878;2022-12-15T04:23:29;-1.78;55.03
72952;HTU21D;61102;51.956;5.878;2022-12-15T04:25:55;-1.78;55.02
72952;HTU21D;61102;51.956;5.878;2022-12-15T04:28:39;-1.83;55.00
72952;HTU21D;61102;51.956;5.878;2022-12-15T04:31:27;-1.89;55.13
72952;HTU21D;61102;51.956;5.878;2022-12-15T04:34:19;-1.87;55.13
72952;HTU21D;61102;51.956;5.878;2022-12-15T04:37:10;-1.86;55.00
72952;HTU21D;61102;51.956;5.878;2022-12-15T04:39:56;-1.87;55.11
72952;HTU21D;61102;51.956;5.878;2022-12-15T04:42:42;-1.86;55.10
72952;HTU21D;61102;51.956;5.878;2022-12-15T04:45:28;-1.83;55.02
72952;HTU21D;61102;51.956;5.878;2022-12-15T04:48:13;-1.86;54.97
72952;HTU21D;61102;51.956;5.878;2022-12-15T04:50:58;-1.90;54.92
72952;HTU21D;61102;51.956;5.878;2022-12-15T04:53:43;-1.94;55.01
72952;HTU21D;61102;51.956;5.878;2022-12-15T04:56:28;-1.95;54.97
72952;HTU21D;61102;51.956;5.878;2022-12-15T04:59:13;-1.94;54.91
72952;HTU21D;61102;51.956;5.878;2022-12-15T05:01:57;-1.93;54.87
72952;HTU21D;61102;51.956;5.878;2022-12-15T05:04:42;-1.93;54.91
72952;HTU21D;61102;51.956;5.878;2022-12-15T05:07:28;-1.89;55.00
72952;HTU21D;61102;51.956;5.878;2022-12-15T05:10:13;-1.86;54.96
72952;HTU21D;61102;51.956;5.878;2022-12-15T05:13:05;-1.88;55.14
72952;HTU21D;61102;51.956;5.878;2022-12-15T05:15:50;-1.90;55.01
72952;HTU21D;61102;51.956;5.878;2022-12-15T05:18:35;-1.91;55.01
72952;HTU21D;61102;51.956;5.878;2022-12-15T05:21:20;-1.94;55.01
72952;HTU21D;61102;51.956;5.878;2022-12-15T05:24:04;-1.95;54.95
72952;HTU21D;61102;51.956;5.878;2022-12-15T05:26:49;-1.94;54.84
72952;HTU21D;61102;51.956;5.878;2022-12-15T05:29:34;-1.93;54.96
72952;HTU21D;61102;51.956;5.878;2022-12-15T05:32:18;-1.91;55.01
72952;HTU21D;61102;51.956;5.878;2022-12-15T05:34:44;-1.89;55.06
72952;HTU21D;61102;51.956;5.878;2022-12-15T05:37:10;-1.91;55.06
72952;HTU21D;61102;51.956;5.878;2022-12-15T05:39:36;-1.94;55.14
72952;HTU21D;61102;51.956;5.878;2022-12-15T05:42:02;-1.92;55.10
72952;HTU21D;61102;51.956;5.878;2022-12-15T05:44:28;-1.95;55.10
72952;HTU21D;61102;51.956;5.878;2022-12-15T05:46:55;-1.94;55.12
72952;HTU21D;61102;51.956;5.878;2022-12-15T05:49:21;-1.91;55.04
72952;HTU21D;61102;51.956;5.878;2022-12-15T05:51:48;-1.90;54.96
72952;HTU21D;61102;51.956;5.878;2022-12-15T05:54:16;-1.91;55.03
72952;HTU21D;61102;51.956;5.878;2022-12-15T05:56:43;-1.91;54.93
72952;HTU21D;61102;51.956;5.878;2022-12-15T05:59:09;-1.95;55.01
72952;HTU21D;61102;51.956;5.878;2022-12-15T06:01:35;-1.98;55.00
72952;HTU21D;61102;51.956;5.878;2022-12-15T06:04:02;-2.00;55.02
72952;HTU21D;61102;51.956;5.878;2022-12-15T06:06:28;-2.01;55.03
72952;HTU21D;61102;51.956;5.878;2022-12-15T06:08:54;-2.02;55.05
72952;HTU21D;61102;51.956;5.878;2022-12-15T06:11:23;-2.01;55.13
72952;HTU21D;61102;51.956;5.878;2022-12-15T06:13:49;-1.97;55.00
72952;HTU21D;61102;51.956;5.878;2022-12-15T06:16:19;-1.98;55.04
72952;HTU21D;61102;51.956;5.878;2022-12-15T06:18:49;-1.95;55.02
72952;HTU21D;61102;51.956;5.878;2022-12-15T06:21:18;-1.99;55.09
72952;HTU21D;61102;51.956;5.878;2022-12-15T06:23:45;-2.02;55.11
72952;HTU21D;61102;51.956;5.878;2022-12-15T06:26:23;-2.05;55.11
72952;HTU21D;61102;51.956;5.878;2022-12-15T06:28:50;-2.07;55.02
72952;HTU21D;61102;51.956;5.878;2022-12-15T06:31:17;-1.44;53.89
72952;HTU21D;61102;51.956;5.878;2022-12-15T06:33:44;-0.38;50.82
72952;HTU21D;61102;51.956;5.878;2022-12-15T06:36:10;0.19;49.22
72952;HTU21D;61102;51.956;5.878;2022-12-15T06:38:36;0.45;48.49
72952;HTU21D;61102;51.956;5.878;2022-12-15T06:41:03;0.60;48.17
72952;HTU21D;61102;51.956;5.878;2022-12-15T06:43:29;0.68;48.06
72952;HTU21D;61102;51.956;5.878;2022-12-15T06:46:02;0.76;48.02
72952;HTU21D;61102;51.956;5.878;2022-12-15T06:48:28;0.81;48.02
72952;HTU21D;61102;51.956;5.878;2022-12-15T06:50:54;0.89;47.98
72952;HTU21D;61102;51.956;5.878;2022-12-15T06:53:20;0.95;47.87
72952;HTU21D;61102;51.956;5.878;2022-12-15T06:55:47;1.02;47.77
72952;HTU21D;61102;51.956;5.878;2022-12-15T06:58:13;1.05;47.67
72952;HTU21D;61102;51.956;5.878;2022-12-15T07:00:40;1.04;47.68
72952;HTU21D;61102;51.956;5.878;2022-12-15T07:03:07;1.07;47.65
72952;HTU21D;61102;51.956;5.878;2022-12-15T07:05:34;1.10;47.57
72952;HTU21D;61102;51.956;5.878;2022-12-15T07:08:00;1.12;47.47
72952;HTU21D;61102;51.956;5.878;2022-12-15T07:10:26;1.13;47.44
72952;HTU21D;61102;51.956;5.878;2022-12-15T07:12:51;1.13;47.38
72952;HTU21D;61102;51.956;5.878;2022-12-15T07:15:20;1.13;47.30
72952;HTU21D;61102;51.956;5.878;2022-12-15T07:17:46;1.12;47.35
72952;HTU21D;61102;51.956;5.878;2022-12-15T07:20:12;1.13;47.42
72952;HTU21D;61102;51.956;5.878;2022-12-15T07:22:38;1.17;47.38
72952;HTU21D;61102;51.956;5.878;2022-12-15T07:25:04;1.18;47.34
72952;HTU21D;61102;51.956;5.878;2022-12-15T07:27:30;1.19;47.31
72952;HTU21D;61102;51.956;5.878;2022-12-15T07:29:55;1.20;47.29
72952;HTU21D;61102;51.956;5.878;2022-12-15T07:32:21;1.20;47.22
72952;HTU21D;61102;51.956;5.878;2022-12-15T07:34:47;1.19;47.25
72952;HTU21D;61102;51.956;5.878;2022-12-15T07:37:14;1.19;47.29
72952;HTU21D;61102;51.956;5.878;2022-12-15T07:39:40;1.19;47.42
72952;HTU21D;61102;51.956;5.878;2022-12-15T07:42:06;1.19;47.56
72952;HTU21D;61102;51.956;5.878;2022-12-15T07:44:32;1.21;47.61
72952;HTU21D;61102;51.956;5.878;2022-12-15T07:46:58;1.25;47.53
72952;HTU21D;61102;51.956;5.878;2022-12-15T07:49:24;1.27;47.45
72952;HTU21D;61102;51.956;5.878;2022-12-15T07:51:50;1.32;47.32
72952;HTU21D;61102;51.956;5.878;2022-12-15T07:54:15;1.31;47.28
72952;HTU21D;61102;51.956;5.878;2022-12-15T07:56:41;1.32;47.36
72952;HTU21D;61102;51.956;5.878;2022-12-15T07:59:07;1.34;47.31
72952;HTU21D;61102;51.956;5.878;2022-12-15T08:01:33;1.35;47.29
72952;HTU21D;61102;51.956;5.878;2022-12-15T08:03:59;1.35;47.32
72952;HTU21D;61102;51.956;5.878;2022-12-15T08:06:25;1.38;47.39
72952;HTU21D;61102;51.956;5.878;2022-12-15T08:08:52;1.39;47.35
72952;HTU21D;61102;51.956;5.878;2022-12-15T08:11:19;1.40;47.30
72952;HTU21D;61102;51.956;5.878;2022-12-15T08:13:45;1.41;47.37
72952;HTU21D;61102;51.956;5.878;2022-12-15T08:16:11;1.42;47.34
72952;HTU21D;61102;51.956;5.878;2022-12-15T08:18:37;1.47;47.33
72952;HTU21D;61102;51.956;5.878;2022-12-15T08:21:05;1.49;47.39
72952;HTU21D;61102;51.956;5.878;2022-12-15T08:23:31;1.52;47.42
72952;HTU21D;61102;51.956;5.878;2022-12-15T08:26:03;1.54;47.53
72952;HTU21D;61102;51.956;5.878;2022-12-15T08:28:31;1.56;47.77
72952;HTU21D;61102;51.956;5.878;2022-12-15T08:31:03;1.61;47.95
72952;HTU21D;61102;51.956;5.878;2022-12-15T08:33:39;1.67;47.98
72952;HTU21D;61102;51.956;5.878;2022-12-15T08:36:06;1.72;47.83
72952;HTU21D;61102;51.956;5.878;2022-12-15T08:38:32;1.77;47.67
72952;HTU21D;61102;51.956;5.878;2022-12-15T08:41:05;1.80;47.67
72952;HTU21D;61102;51.956;5.878;2022-12-15T08:43:31;1.82;47.83
72952;HTU21D;61102;51.956;5.878;2022-12-15T08:45:58;1.87;47.86
72952;HTU21D;61102;51.956;5.878;2022-12-15T08:48:24;1.92;47.82
72952;HTU21D;61102;51.956;5.878;2022-12-15T08:50:49;1.97;47.79
72952;HTU21D;61102;51.956;5.878;2022-12-15T08:53:15;2.00;47.76
72952;HTU21D;61102;51.956;5.878;2022-12-15T08:55:41;2.03;47.74
72952;HTU21D;61102;51.956;5.878;2022-12-15T08:58:07;2.07;47.86
72952;HTU21D;61102;51.956;5.878;2022-12-15T09:00:33;2.11;47.96
72952;HTU21D;61102;51.956;5.878;2022-12-15T09:02:59;2.15;48.03
72952;HTU21D;61102;51.956;5.878;2022-12-15T09:05:25;2.23;47.99
72952;HTU21D;61102;51.956;5.878;2022-12-15T09:07:55;2.26;47.94
72952;HTU21D;61102;51.956;5.878;2022-12-15T09:10:21;2.32;47.96
72952;HTU21D;61102;51.956;5.878;2022-12-15T09:12:47;2.37;48.11
72952;HTU21D;61102;51.956;5.878;2022-12-15T09:15:13;2.44;48.25
72952;HTU21D;61102;51.956;5.878;2022-12-15T09:17:38;2.50;48.44
72952;HTU21D;61102;51.956;5.878;2022-12-15T09:20:04;2.56;48.65
72952;HTU21D;61102;51.956;5.878;2022-12-15T09:22:30;2.64;48.74
72952;HTU21D;61102;51.956;5.878;2022-12-15T09:24:56;2.72;48.88
72952;HTU21D;61102;51.956;5.878;2022-12-15T09:27:22;2.80;48.96
72952;HTU21D;61102;51.956;5.878;2022-12-15T09:29:48;2.87;49.05
72952;HTU21D;61102;51.956;5.878;2022-12-15T09:32:14;2.96;49.10
72952;HTU21D;61102;51.956;5.878;2022-12-15T09:34:40;3.04;49.19
72952;HTU21D;61102;51.956;5.878;2022-12-15T09:37:06;3.12;49.24
72952;HTU21D;61102;51.956;5.878;2022-12-15T09:39:32;3.21;49.22
72952;HTU21D;61102;51.956;5.878;2022-12-15T09:41:58;3.29;49.23
72952;HTU21D;61102;51.956;5.878;2022-12-15T09:44:25;3.36;49.25
72952;HTU21D;61102;51.956;5.878;2022-12-15T09:49:34;3.52;49.31
72952;HTU21D;61102;51.956;5.878;2022-12-15T09:54:30;3.71;49.40
72952;HTU21D;61102;51.956;5.878;2022-12-15T09:57:01;3.77;49.50
72952;HTU21D;61102;51.956;5.878;2022-12-15T09:59:31;3.87;49.49
72952;HTU21D;61102;51.956;5.878;2022-12-15T10:02:01;3.99;49.45
72952;HTU21D;61102;51.956;5.878;2022-12-15T10:04:31;4.07;49.44
72952;HTU21D;61102;51.956;5.878;2022-12-15T10:07:07;4.15;49.43
72952;HTU21D;61102;51.956;5.878;2022-12-15T10:09:35;4.22;49.53
72952;HTU21D;61102;51.956;5.878;2022-12-15T10:12:24;4.31;49.59
72952;HTU21D;61102;51.956;5.878;2022-12-15T10:17:45;4.52;49.68
72952;HTU21D;61102;51.956;5.878;2022-12-15T10:20:21;4.60;49.60
72952;HTU21D;61102;51.956;5.878;2022-12-15T10:22:48;4.67;49.69
72952;HTU21D;61102;51.956;5.878;2022-12-15T10:25:26;4.76;49.79
72952;HTU21D;61102;51.956;5.878;2022-12-15T10:28:02;4.87;49.88
72952;HTU21D;61102;51.956;5.878;2022-12-15T10:30:32;4.98;49.79
72952;HTU21D;61102;51.956;5.878;2022-12-15T10:33:02;5.07;49.87
72952;HTU21D;61102;51.956;5.878;2022-12-15T10:35:32;5.19;49.92
72952;HTU21D;61102;51.956;5.878;2022-12-15T10:38:15;5.30;49.98
72952;HTU21D;61102;51.956;5.878;2022-12-15T10:43:16;5.51;50.08
72952;HTU21D;61102;51.956;5.878;2022-12-15T10:45:47;5.61;50.08
72952;HTU21D;61102;51.956;5.878;2022-12-15T10:48:18;5.72;49.98
72952;HTU21D;61102;51.956;5.878;2022-12-15T10:50:44;5.77;50.15
72952;HTU21D;61102;51.956;5.878;2022-12-15T10:53:29;5.83;50.30
72952;HTU21D;61102;51.956;5.878;2022-12-15T10:55:59;5.98;50.24
72952;HTU21D;61102;51.956;5.878;2022-12-15T10:58:26;6.06;50.24
72952;HTU21D;61102;51.956;5.878;2022-12-15T11:01:03;6.13;50.34
72952;HTU21D;61102;51.956;5.878;2022-12-15T11:03:29;6.23;50.34
72952;HTU21D;61102;51.956;5.878;2022-12-15T11:06:00;6.31;50.39
72952;HTU21D;61102;51.956;5.878;2022-12-15T11:08:26;6.41;50.36
72952;HTU21D;61102;51.956;5.878;2022-12-15T11:10:54;6.51;50.37
72952;HTU21D;61102;51.956;5.878;2022-12-15T11:13:39;6.57;50.34
72952;HTU21D;61102;51.956;5.878;2022-12-15T11:16:15;6.64;50.38
72952;HTU21D;61102;51.956;5.878;2022-12-15T11:21:47;6.80;50.41
72952;HTU21D;61102;51.956;5.878;2022-12-15T11:32:07;7.05;50.41
72952;HTU21D;61102;51.956;5.878;2022-12-15T11:34:36;7.11;50.45
72952;HTU21D;61102;51.956;5.878;2022-12-15T11:39:58;7.18;50.11
72952;HTU21D;61102;51.956;5.878;2022-12-15T11:42:44;7.23;50.20
72952;HTU21D;61102;51.956;5.878;2022-12-15T11:45:17;7.29;49.94
72952;HTU21D;61102;51.956;5.878;2022-12-15T11:48:19;7.37;49.57
72952;HTU21D;61102;51.956;5.878;2022-12-15T11:53:08;7.43;49.47
72952;HTU21D;61102;51.956;5.878;2022-12-15T11:55:40;7.48;49.53
72952;HTU21D;61102;51.956;5.878;2022-12-15T12:00:35;7.59;49.78
72952;HTU21D;61102;51.956;5.878;2022-12-15T12:08:05;7.81;49.91
72952;HTU21D;61102;51.956;5.878;2022-12-15T12:18:24;8.18;50.42
72952;HTU21D;61102;51.956;5.878;2022-12-15T12:21:14;8.32;49.88
72952;HTU21D;61102;51.956;5.878;2022-12-15T12:26:10;8.41;49.03
72952;HTU21D;61102;51.956;5.878;2022-12-15T12:31:05;8.37;49.77
72952;HTU21D;61102;51.956;5.878;2022-12-15T12:33:39;8.36;49.71
72952;HTU21D;61102;51.956;5.878;2022-12-15T12:36:10;8.37;49.73
72952;HTU21D;61102;51.956;5.878;2022-12-15T12:38:37;8.33;49.40
72952;HTU21D;61102;51.956;5.878;2022-12-15T12:41:06;8.31;49.36
72952;HTU21D;61102;51.956;5.878;2022-12-15T12:43:38;8.30;49.31
72952;HTU21D;61102;51.956;5.878;2022-12-15T12:46:12;8.31;49.73
72952;HTU21D;61102;51.956;5.878;2022-12-15T12:48:48;8.33;49.84
72952;HTU21D;61102;51.956;5.878;2022-12-15T12:53:59;8.47;49.68
72952;HTU21D;61102;51.956;5.878;2022-12-15T12:58:57;8.49;49.44
72952;HTU21D;61102;51.956;5.878;2022-12-15T13:11:55;8.75;50.66
72952;HTU21D;61102;51.956;5.878;2022-12-15T13:14:29;8.95;49.20
72952;HTU21D;61102;51.956;5.878;2022-12-15T13:17:18;9.07;49.21
72952;HTU21D;61102;51.956;5.878;2022-12-15T13:22:52;9.07;49.02
72952;HTU21D;61102;51.956;5.878;2022-12-15T13:31:18;9.03;49.98
72952;HTU21D;61102;51.956;5.878;2022-12-15T13:33:48;9.10;49.84
72952;HTU21D;61102;51.956;5.878;2022-12-15T13:39:00;9.10;49.56
72952;HTU21D;61102;51.956;5.878;2022-12-15T13:41:26;9.09;49.65
72952;HTU21D;61102;51.956;5.878;2022-12-15T13:43:52;9.10;49.56
72952;HTU21D;61102;51.956;5.878;2022-12-15T13:46:25;9.14;49.76
72952;HTU21D;61102;51.956;5.878;2022-12-15T13:49:00;9.15;49.47
72952;HTU21D;61102;51.956;5.878;2022-12-15T13:51:37;9.09;49.38
72952;HTU21D;61102;51.956;5.878;2022-12-15T13:54:14;8.98;49.44
72952;HTU21D;61102;51.956;5.878;2022-12-15T13:56:56;8.91;49.53
72952;HTU21D;61102;51.956;5.878;2022-12-15T14:01:52;8.79;49.65
72952;HTU21D;61102;51.956;5.878;2022-12-15T14:04:18;8.73;49.62
72952;HTU21D;61102;51.956;5.878;2022-12-15T14:06:46;8.65;49.56
72952;HTU21D;61102;51.956;5.878;2022-12-15T14:09:13;8.59;49.65
72952;HTU21D;61102;51.956;5.878;2022-12-15T14:11:40;8.55;49.68
72952;HTU21D;61102;51.956;5.878;2022-12-15T14:14:11;8.49;49.65
72952;HTU21D;61102;51.956;5.878;2022-12-15T14:16:40;8.46;49.60
72952;HTU21D;61102;51.956;5.878;2022-12-15T14:21:34;8.35;49.34
72952;HTU21D;61102;51.956;5.878;2022-12-15T14:23:59;8.30;49.57
72952;HTU21D;61102;51.956;5.878;2022-12-15T14:26:26;8.24;49.66
72952;HTU21D;61102;51.956;5.878;2022-12-15T14:29:03;8.22;49.70
72952;HTU21D;61102;51.956;5.878;2022-12-15T14:31:29;8.19;49.76
72952;HTU21D;61102;51.956;5.878;2022-12-15T14:34:19;8.18;49.72
72952;HTU21D;61102;51.956;5.878;2022-12-15T14:36:41;8.18;49.75
72952;HTU21D;61102;51.956;5.878;2022-12-15T14:39:16;8.17;49.78
72952;HTU21D;61102;51.956;5.878;2022-12-15T14:41:44;8.16;49.88
72952;HTU21D;61102;51.956;5.878;2022-12-15T14:44:16;8.15;49.89
72952;HTU21D;61102;51.956;5.878;2022-12-15T14:46:46;8.14;49.98
72952;HTU21D;61102;51.956;5.878;2022-12-15T14:49:16;8.13;50.09
72952;HTU21D;61102;51.956;5.878;2022-12-15T14:51:45;8.16;50.15
72952;HTU21D;61102;51.956;5.878;2022-12-15T14:57:02;8.23;50.27
72952;HTU21D;61102;51.956;5.878;2022-12-15T14:59:38;8.22;50.18
72952;HTU21D;61102;51.956;5.878;2022-12-15T15:02:17;8.18;50.11
72952;HTU21D;61102;51.956;5.878;2022-12-15T15:05:00;8.13;49.98
72952;HTU21D;61102;51.956;5.878;2022-12-15T15:07:30;8.05;50.11
72952;HTU21D;61102;51.956;5.878;2022-12-15T15:09:56;8.00;50.02
72952;HTU21D;61102;51.956;5.878;2022-12-15T15:12:22;7.99;50.01
72952;HTU21D;61102;51.956;5.878;2022-12-15T15:14:53;7.93;49.97
72952;HTU21D;61102;51.956;5.878;2022-12-15T15:17:36;7.87;49.74
72952;HTU21D;61102;51.956;5.878;2022-12-15T15:20:03;7.79;49.73
72952;HTU21D;61102;51.956;5.878;2022-12-15T15:27:49;7.62;49.88
72952;HTU21D;61102;51.956;5.878;2022-12-15T15:30:17;7.59;49.84
72952;HTU21D;61102;51.956;5.878;2022-12-15T15:32:54;7.56;49.76
72952;HTU21D;61102;51.956;5.878;2022-12-15T15:35:20;7.50;49.66
72952;HTU21D;61102;51.956;5.878;2022-12-15T15:37:46;7.46;49.55
72952;HTU21D;61102;51.956;5.878;2022-12-15T15:40:12;7.41;49.47
72952;HTU21D;61102;51.956;5.878;2022-12-15T15:42:40;7.34;49.44
72952;HTU21D;61102;51.956;5.878;2022-12-15T15:45:10;7.29;49.42
72952;HTU21D;61102;51.956;5.878;2022-12-15T15:47:38;7.24;49.37
72952;HTU21D;61102;51.956;5.878;2022-12-15T15:50:04;7.19;49.30
72952;HTU21D;61102;51.956;5.878;2022-12-15T15:52:30;7.12;49.13
72952;HTU21D;61102;51.956;5.878;2022-12-15T15:54:56;7.07;49.08
72952;HTU21D;61102;51.956;5.878;2022-12-15T15:57:22;7.01;49.05
72952;HTU21D;61102;51.956;5.878;2022-12-15T15:59:48;6.91;48.98
72952;HTU21D;61102;51.956;5.878;2022-12-15T16:02:15;6.86;48.98
72952;HTU21D;61102;51.956;5.878;2022-12-15T16:04:41;6.81;49.17
72952;HTU21D;61102;51.956;5.878;2022-12-15T16:07:24;6.76;49.14
72952;HTU21D;61102;51.956;5.878;2022-12-15T16:09:51;6.68;49.12
72952;HTU21D;61102;51.956;5.878;2022-12-15T16:15:12;6.58;48.97
72952;HTU21D;61102;51.956;5.878;2022-12-15T16:17:38;6.53;48.94
72952;HTU21D;61102;51.956;5.878;2022-12-15T16:20:04;6.49;48.95
72952;HTU21D;61102;51.956;5.878;2022-12-15T16:22:30;6.44;48.92
72952;HTU21D;61102;51.956;5.878;2022-12-15T16:24:58;6.40;48.92
72952;HTU21D;61102;51.956;5.878;2022-12-15T16:27:24;6.35;49.02
72952;HTU21D;61102;51.956;5.878;2022-12-15T16:29:50;6.30;49.07
72952;HTU21D;61102;51.956;5.878;2022-12-15T16:32:16;6.26;48.96
72952;HTU21D;61102;51.956;5.878;2022-12-15T16:34:41;6.22;48.96
72952;HTU21D;61102;51.956;5.878;2022-12-15T16:37:22;6.17;49.06
72952;HTU21D;61102;51.956;5.878;2022-12-15T16:39:49;6.14;49.07
72952;HTU21D;61102;51.956;5.878;2022-12-15T16:42:14;6.10;48.98
72952;HTU21D;61102;51.956;5.878;2022-12-15T16:44:46;6.09;49.08
72952;HTU21D;61102;51.956;5.878;2022-12-15T16:47:11;6.06;49.05
72952;HTU21D;61102;51.956;5.878;2022-12-15T16:49:37;6.01;48.97
72952;HTU21D;61102;51.956;5.878;2022-12-15T16:52:03;5.95;48.94
72952;HTU21D;61102;51.956;5.878;2022-12-15T16:54:29;5.92;48.94
72952;HTU21D;61102;51.956;5.878;2022-12-15T16:56:56;5.87;48.95
72952;HTU21D;61102;51.956;5.878;2022-12-15T16:59:23;5.84;48.92
72952;HTU21D;61102;51.956;5.878;2022-12-15T17:01:52;5.79;48.92
72952;HTU21D;61102;51.956;5.878;2022-12-15T17:04:18;5.75;48.91
72952;HTU21D;61102;51.956;5.878;2022-12-15T17:06:44;5.70;48.87
72952;HTU21D;61102;51.956;5.878;2022-12-15T17:09:15;5.66;48.82
72952;HTU21D;61102;51.956;5.878;2022-12-15T17:11:43;5.62;48.82
72952;HTU21D;61102;51.956;5.878;2022-12-15T17:14:09;5.56;48.76
72952;HTU21D;61102;51.956;5.878;2022-12-15T17:16:34;5.53;48.72
72952;HTU21D;61102;51.956;5.878;2022-12-15T17:19:00;5.50;48.74
72952;HTU21D;61102;51.956;5.878;2022-12-15T17:21:33;5.46;48.73
72952;HTU21D;61102;51.956;5.878;2022-12-15T17:24:02;5.43;48.75
72952;HTU21D;61102;51.956;5.878;2022-12-15T17:26:30;5.40;48.71
72952;HTU21D;61102;51.956;5.878;2022-12-15T17:28:58;5.37;48.87
72952;HTU21D;61102;51.956;5.878;2022-12-15T17:31:24;5.34;48.91
72952;HTU21D;61102;51.956;5.878;2022-12-15T17:33:53;5.31;49.02
72952;HTU21D;61102;51.956;5.878;2022-12-15T17:36:20;5.28;49.02
72952;HTU21D;61102;51.956;5.878;2022-12-15T17:38:47;5.27;48.97
72952;HTU21D;61102;51.956;5.878;2022-12-15T17:41:15;5.25;48.88